Terminal Aerodrome Forecast
Issued by NWS Greer, SC

Home | Current Version | Previous Version | Text Only | Print | Product List | Glossary On
Versions: 1 2 3 4 5 6 7 8 9 10 11 12 13 14
000
FTUS42 KGSP 210500
TAFGSP
TAF
KGSP 210524Z 2106/2206 22003KT P6SM FEW170
     FM211100 30003KT 5SM BR FEW250
     FM211300 00000KT P6SM FEW250
     FM211800 30006KT P6SM FEW250
     FM220000 36009KT P6SM FEW150=

USA.gov is the U.S. government's official web portal to all federal, state and local government web resources and services.